Time;durP1;ratioP1;P1;durP2;ratioP2;P2;SDS_P1;SDS_P2;PMS_P1;PMS_P2;Temp;Humidity;BMP_temperature;BMP_pressure;BME280_temperature;BME280_humidity;BME280_pressure;Samples;Min_cycle;Max_cycle;Signal;HPM_P1;HPM_P2
2022/07/28 00:00:07;;;;;;;20.20;17.20;;;21.60;99.90;21.80;98348.00;;;;5014813;28;87515;-61
2022/07/28 00:02:33;;;;;;;28.15;18.92;;;21.50;99.90;21.80;98344.00;;;;5007366;28;88526;-60
2022/07/28 00:04:59;;;;;;;21.05;18.85;;;21.50;99.90;21.80;98347.00;;;;4979669;28;87339;-60
2022/07/28 00:07:25;;;;;;;25.20;19.70;;;21.50;99.90;21.80;98349.00;;;;4992473;28;87454;-60
2022/07/28 00:09:51;;;;;;;25.65;19.85;;;21.50;99.90;21.80;98354.00;;;;5016339;28;88713;-60
2022/07/28 00:12:17;;;;;;;24.92;19.38;;;21.50;99.90;21.80;98356.00;;;;5014821;28;88196;-59
2022/07/28 00:14:44;;;;;;;23.48;18.58;;;21.50;99.90;21.80;98359.00;;;;5010548;28;87933;-60
2022/07/28 00:17:10;;;;;;;25.17;18.50;;;21.50;99.90;21.70;98350.00;;;;4994410;28;87130;-60
2022/07/28 00:19:36;;;;;;;22.63;19.63;;;21.50;99.90;21.70;98345.00;;;;5015401;28;87469;-60
2022/07/28 00:22:02;;;;;;;24.52;18.70;;;21.40;99.90;21.70;98353.00;;;;5003017;28;87512;-60
2022/07/28 00:24:30;;;;;;;22.17;19.88;;;21.40;99.90;21.70;98341.00;;;;5004761;28;86981;-60
2022/07/28 00:26:56;;;;;;;23.77;19.35;;;21.40;99.90;21.70;98358.00;;;;4989786;28;86393;-60
2022/07/28 00:29:23;;;;;;;21.00;18.60;;;21.40;99.90;21.70;98353.00;;;;5011325;28;87647;-59
2022/07/28 00:31:49;;;;;;;26.35;20.90;;;21.40;99.90;21.70;98360.00;;;;4997607;28;87458;-66
2022/07/28 00:34:15;;;;;;;28.00;21.23;;;21.40;99.90;21.70;98363.00;;;;5017190;28;88470;-66
2022/07/28 00:36:41;;;;;;;23.92;21.15;;;21.40;99.90;21.70;98353.00;;;;5016239;28;87026;-67
2022/07/28 00:39:07;;;;;;;26.40;20.23;;;21.40;99.90;21.60;98359.00;;;;5008158;28;87617;-66
2022/07/28 00:41:35;;;;;;;24.35;21.77;;;21.40;99.90;21.60;98347.00;;;;5009950;28;87483;-66
2022/07/28 00:44:04;;;;;;;26.80;21.80;;;21.40;99.90;21.60;98357.00;;;;4988075;28;87552;-66
2022/07/28 00:46:30;;;;;;;28.95;21.65;;;21.30;99.90;21.60;98351.00;;;;4987960;28;87279;-66
2022/07/28 00:48:56;;;;;;;24.85;21.90;;;21.30;99.90;21.60;98352.00;;;;5007019;28;88850;-66
2022/07/28 00:51:25;;;;;;;28.35;22.73;;;21.30;99.90;21.60;98361.00;;;;4994677;28;87280;-66
2022/07/28 00:53:52;;;;;;;30.60;22.90;;;21.30;99.90;21.50;98358.00;;;;5013667;28;87017;-66
2022/07/28 00:56:19;;;;;;;32.03;22.50;;;21.30;99.90;21.50;98344.00;;;;5009268;28;87204;-66
2022/07/28 00:58:46;;;;;;;28.08;21.58;;;21.30;99.90;21.50;98346.00;;;;5012939;28;88617;-66
2022/07/28 01:01:16;;;;;;;25.60;21.67;;;21.20;99.90;21.40;98361.00;;;;5009857;28;88376;-66
2022/07/28 01:03:50;;;;;;;26.15;21.20;;;21.20;99.90;21.40;98357.00;;;;5013885;28;86993;-66
2022/07/28 01:06:43;;;;;;;25.25;21.00;;;21.10;99.90;21.30;98356.00;;;;4990877;28;89053;-66
2022/07/28 01:09:27;;;;;;;28.58;23.73;;;21.10;99.90;21.20;98341.00;;;;5016863;28;89228;-66
2022/07/28 01:12:17;;;;;;;26.80;22.33;;;21.00;99.90;21.20;98339.00;;;;5006376;28;87416;-66
2022/07/28 01:15:27;;;;;;;30.13;23.55;;;21.00;99.90;21.10;98346.00;;;;5008011;28;87676;-66
2022/07/28 01:18:14;;;;;;;26.77;22.52;;;20.90;99.90;21.10;98343.00;;;;4990127;28;86724;-66
2022/07/28 01:20:49;;;;;;;27.08;22.73;;;20.90;99.90;21.10;98336.00;;;;5000194;28;88729;-66
2022/07/28 01:23:30;;;;;;;32.22;22.90;;;20.90;99.90;21.10;98338.00;;;;4992554;28;88786;-66
2022/07/28 01:26:19;;;;;;;31.17;23.13;;;20.90;99.90;21.10;98342.00;;;;4999465;28;88253;-66
2022/07/28 01:29:02;;;;;;;27.60;24.50;;;20.90;99.90;21.10;98338.00;;;;4988212;28;87016;-64
2022/07/28 01:31:39;;;;;;;28.48;22.45;;;20.90;99.90;21.10;98334.00;;;;4971690;28;89030;-63
2022/07/28 01:34:16;;;;;;;28.48;21.98;;;20.90;99.90;21.20;98339.00;;;;4957073;28;87310;-60
2022/07/28 01:36:51;;;;;;;29.95;21.92;;;20.90;99.90;21.10;98334.00;;;;4965282;28;87496;-60
2022/07/28 01:39:19;;;;;;;26.23;22.75;;;20.90;99.90;21.10;98331.00;;;;4961065;28;87714;-60
2022/07/28 01:41:48;;;;;;;26.40;21.55;;;20.90;99.90;21.10;98332.00;;;;4959111;28;87709;-60
2022/07/28 01:44:22;;;;;;;29.10;22.33;;;20.80;99.90;21.10;98335.00;;;;4965859;28;87665;-63
2022/07/28 01:46:50;;;;;;;31.48;22.80;;;20.80;99.90;21.10;98335.00;;;;4972129;28;86935;-64
2022/07/28 01:49:18;;;;;;;26.63;23.83;;;20.80;99.90;21.10;98337.00;;;;4988204;28;87311;-60
2022/07/28 01:51:47;;;;;;;24.63;21.88;;;20.90;99.90;21.10;98334.00;;;;4971004;28;88764;-60
2022/07/28 01:54:14;;;;;;;26.45;23.10;;;20.80;99.90;21.10;98334.00;;;;4963840;28;89566;-60
2022/07/28 01:56:41;;;;;;;25.05;22.35;;;20.80;99.90;21.00;98332.00;;;;4971440;28;87460;-60
2022/07/28 01:59:11;;;;;;;29.10;22.45;;;20.80;99.90;21.00;98329.00;;;;4970579;28;88033;-64
2022/07/28 02:01:42;;;;;;;33.78;22.90;;;20.70;99.90;21.00;98325.00;;;;4979378;28;87365;-63
2022/07/28 02:04:10;;;;;;;26.90;23.15;;;20.70;99.90;21.00;98321.00;;;;4966619;28;88612;-63
2022/07/28 02:06:38;;;;;;;31.88;24.52;;;20.70;99.90;21.00;98328.00;;;;4966671;28;87421;-64
2022/07/28 02:09:07;;;;;;;31.42;23.13;;;20.80;99.90;21.00;98335.00;;;;4972843;28;86528;-63
2022/07/28 02:11:41;;;;;;;31.55;24.17;;;20.80;99.90;21.10;98328.00;;;;4971653;28;87685;-64
2022/07/28 02:14:14;;;;;;;33.63;24.88;;;20.80;99.90;21.10;98334.00;;;;4963523;28;88740;-62
2022/07/28 02:16:47;;;;;;;30.55;24.45;;;20.90;99.90;21.20;98328.00;;;;4971485;28;87984;-63
2022/07/28 02:19:14;;;;;;;32.35;25.27;;;20.90;99.90;21.20;98329.00;;;;4992819;28;87417;-63
2022/07/28 02:21:41;;;;;;;29.73;24.08;;;21.00;99.90;21.20;98326.00;;;;4977568;28;87718;-63
2022/07/28 02:24:09;;;;;;;31.17;25.45;;;21.00;99.90;21.30;98328.00;;;;4963289;28;87565;-64
2022/07/28 02:26:41;;;;;;;38.10;27.10;;;21.00;99.90;21.40;98334.00;;;;4955754;28;87130;-64
2022/07/28 02:29:11;;;;;;;36.80;26.42;;;21.20;99.90;21.70;98325.00;;;;4971679;28;87035;-64
2022/07/28 02:32:22;;;;;;;35.15;26.48;;;21.40;99.90;22.20;98334.00;;;;5009284;28;87779;-64
2022/07/28 02:34:49;;;;;;;34.40;24.33;;;21.70;99.90;22.50;98337.00;;;;4997447;28;87533;-64
2022/07/28 02:37:18;;;;;;;32.47;23.73;;;22.10;99.90;23.00;98332.00;;;;4993715;28;87428;-63
2022/07/28 02:39:55;;;;;;;33.03;22.85;;;22.50;99.90;23.60;98334.00;;;;5008189;28;86971;-63
2022/07/28 02:42:31;;;;;;;40.63;26.27;;;23.00;99.90;24.10;98333.00;;;;5015030;28;88470;-64
2022/07/28 02:45:02;;;;;;;43.85;29.45;;;23.50;99.90;24.60;98325.00;;;;4997613;28;89631;-63
2022/07/28 02:47:36;;;;;;;28.48;22.52;;;23.90;99.90;24.80;98323.00;;;;4991669;28;87067;-64
2022/07/28 02:50:04;;;;;;;29.35;21.67;;;24.20;99.90;25.10;98330.00;;;;4989337;28;87154;-62
2022/07/28 02:52:31;;;;;;;27.17;21.27;;;24.50;99.90;25.50;98341.00;;;;5004088;28;87717;-63
2022/07/28 02:54:59;;;;;;;29.98;21.70;;;24.80;99.90;25.80;98338.00;;;;4982275;28;88137;-64
2022/07/28 02:57:26;;;;;;;29.02;22.17;;;25.00;99.90;26.10;98340.00;;;;4990955;28;87147;-63
2022/07/28 02:59:54;;;;;;;29.58;22.48;;;25.30;99.90;26.30;98341.00;;;;4993058;28;86429;-65
2022/07/28 03:02:22;;;;;;;32.25;21.92;;;25.50;99.90;26.50;98336.00;;;;4988125;28;87660;-63
2022/07/28 03:04:57;;;;;;;26.15;20.42;;;25.70;99.90;26.80;98340.00;;;;4989297;28;87556;-63
2022/07/28 03:07:28;;;;;;;27.77;20.15;;;26.00;99.90;26.90;98338.00;;;;4989471;28;88653;-63
2022/07/28 03:09:55;;;;;;;24.60;19.20;;;26.10;99.90;27.20;98338.00;;;;5002569;28;88053;-63
2022/07/28 03:12:22;;;;;;;35.53;20.58;;;26.40;99.90;27.50;98343.00;;;;5010399;28;87535;-63
2022/07/28 03:14:48;;;;;;;26.75;18.50;;;26.70;99.90;27.70;98345.00;;;;4988939;28;87693;-63
2022/07/28 03:17:14;;;;;;;29.95;18.95;;;26.90;99.90;27.90;98346.00;;;;5004622;28;87097;-63
2022/07/28 03:19:41;;;;;;;29.50;20.60;;;27.10;99.90;28.00;98354.00;;;;5008961;28;87112;-63
2022/07/28 03:22:07;;;;;;;25.65;21.08;;;27.20;99.90;27.40;98360.00;;;;5008243;28;88823;-63
2022/07/28 03:24:43;;;;;;;29.65;21.02;;;26.60;99.90;26.70;98363.00;;;;5009068;28;87422;-63
2022/07/28 03:27:29;;;;;;;29.70;20.83;;;26.10;99.90;26.20;98374.00;;;;5008185;28;87081;-63
2022/07/28 03:30:05;;;;;;;26.88;20.45;;;25.70;99.90;25.70;98367.00;;;;5005194;28;87259;-63
2022/07/28 03:32:35;;;;;;;28.83;21.50;;;25.30;99.90;25.40;98359.00;;;;4995621;28;88573;-64
2022/07/28 03:35:01;;;;;;;32.92;21.48;;;25.00;99.90;25.30;98360.00;;;;4992334;28;89550;-64
2022/07/28 03:37:41;;;;;;;32.45;22.17;;;25.00;99.90;25.70;98362.00;;;;4987557;28;87004;-64
2022/07/28 03:40:11;;;;;;;28.55;21.55;;;25.20;99.90;26.40;98370.00;;;;4993256;28;87473;-64
2022/07/28 03:42:39;;;;;;;31.67;21.52;;;25.80;99.90;27.10;98363.00;;;;4988991;28;88911;-64
2022/07/28 03:45:06;;;;;;;29.42;19.50;;;26.40;99.90;27.80;98368.00;;;;5009996;28;88847;-64
2022/07/28 03:47:32;;;;;;;29.10;19.88;;;27.00;99.90;28.30;98359.00;;;;4969049;28;87250;-64
2022/07/28 03:49:59;;;;;;;29.80;19.52;;;27.60;99.90;28.80;98358.00;;;;5010114;28;86997;-64
2022/07/28 03:52:25;;;;;;;24.02;18.55;;;28.00;99.90;29.00;98354.00;;;;5007914;28;87387;-64
2022/07/28 03:54:51;;;;;;;24.33;18.65;;;28.20;99.90;28.90;98363.00;;;;5006598;28;87560;-64
2022/07/28 03:57:17;;;;;;;24.98;17.80;;;28.10;99.90;28.60;98364.00;;;;5007700;28;88459;-64
2022/07/28 03:59:43;;;;;;;22.10;17.80;;;27.90;99.90;28.60;98362.00;;;;5002707;28;87314;-64
2022/07/28 04:02:09;;;;;;;23.08;16.17;;;27.80;99.90;28.20;98357.00;;;;4999399;28;87801;-64
2022/07/28 04:04:35;;;;;;;18.73;15.90;;;27.50;99.90;28.20;98359.00;;;;5009244;28;87631;-64
2022/07/28 04:07:02;;;;;;;22.98;16.65;;;27.50;99.90;28.10;98361.00;;;;5003743;28;87180;-64
2022/07/28 04:09:28;;;;;;;29.08;16.70;;;27.40;99.90;27.80;98357.00;;;;5013434;28;87127;-64
2022/07/28 04:11:54;;;;;;;21.67;16.88;;;27.10;99.90;27.30;98364.00;;;;5007509;28;87544;-64
2022/07/28 04:14:20;;;;;;;20.08;16.00;;;26.70;99.90;26.80;98366.00;;;;5003429;28;87381;-63
2022/07/28 04:16:46;;;;;;;20.17;17.75;;;26.20;99.90;26.40;98372.00;;;;5007249;28;87297;-64
2022/07/28 04:19:12;;;;;;;21.25;16.98;;;25.90;99.90;26.20;98373.00;;;;5007927;28;87105;-64
2022/07/28 04:21:38;;;;;;;28.75;17.13;;;25.70;99.90;26.20;98373.00;;;;5008398;28;88533;-64
2022/07/28 04:24:05;;;;;;;22.50;16.05;;;25.70;99.90;26.40;98374.00;;;;5004513;28;89493;-64
2022/07/28 04:26:31;;;;;;;25.25;15.68;;;25.80;99.90;26.60;98377.00;;;;5003996;28;87989;-64
2022/07/28 04:28:58;;;;;;;20.92;15.25;;;25.90;99.90;26.70;98375.00;;;;5004739;28;87626;-64
2022/07/28 04:31:24;;;;;;;22.85;15.27;;;26.00;99.90;26.80;98379.00;;;;4992183;28;90057;-64
2022/07/28 04:33:50;;;;;;;25.05;17.42;;;26.30;99.90;27.20;98367.00;;;;5014431;28;87730;-64
2022/07/28 04:36:16;;;;;;;29.90;16.75;;;26.50;99.90;27.70;98385.00;;;;5019656;28;87478;-63
2022/07/28 04:38:42;;;;;;;20.23;15.93;;;27.00;99.90;28.30;98374.00;;;;5006826;28;86171;-64
2022/07/28 04:41:08;;;;;;;20.60;15.27;;;27.50;99.90;28.90;98369.00;;;;5012907;28;87604;-64
2022/07/28 04:43:36;;;;;;;17.42;15.20;;;28.00;99.90;29.30;98373.00;;;;5015811;28;88398;-64
2022/07/28 04:46:02;;;;;;;17.35;15.57;;;28.40;99.90;29.30;98377.00;;;;5011686;28;88035;-64
2022/07/28 04:48:28;;;;;;;16.85;15.15;;;28.30;99.90;29.10;98374.00;;;;4987222;28;87032;-64
2022/07/28 04:50:54;;;;;;;18.23;14.27;;;28.20;99.90;29.50;98378.00;;;;5013486;28;88100;-63
2022/07/28 04:53:21;;;;;;;18.02;14.90;;;28.60;99.90;30.10;98377.00;;;;5012101;28;87313;-62
2022/07/28 04:55:48;;;;;;;17.52;14.50;;;29.10;99.90;30.20;98366.00;;;;5011045;28;87159;-64
2022/07/28 04:58:17;;;;;;;19.52;13.80;;;29.10;99.90;30.40;98375.00;;;;5009688;28;87732;-63
2022/07/28 05:00:44;;;;;;;17.58;14.25;;;29.40;99.90;30.50;98371.00;;;;5010353;28;87729;-64
2022/07/28 05:03:11;;;;;;;18.52;13.77;;;29.60;99.90;30.70;98377.00;;;;5006023;28;88494;-64
2022/07/28 05:05:37;;;;;;;17.73;13.82;;;29.70;99.90;30.50;98369.00;;;;5009427;28;87561;-64
2022/07/28 05:08:03;;;;;;;15.85;12.82;;;29.60;99.90;30.50;98369.00;;;;5010411;28;86986;-63
2022/07/28 05:10:30;;;;;;;19.33;11.88;;;29.50;99.90;30.70;98383.00;;;;5010887;28;88529;-64
2022/07/28 05:12:56;;;;;;;16.35;12.63;;;29.70;99.90;30.90;98379.00;;;;5007862;28;88493;-63
2022/07/28 05:15:22;;;;;;;17.10;12.70;;;29.90;99.90;30.90;98379.00;;;;5008600;28;87271;-63
2022/07/28 05:17:48;;;;;;;14.88;12.35;;;30.00;99.90;31.00;98374.00;;;;5005355;28;87250;-63
2022/07/28 05:20:16;;;;;;;19.10;12.77;;;30.00;99.90;30.70;98378.00;;;;5008578;28;87699;-63
2022/07/28 05:22:52;;;;;;;19.13;11.95;;;29.70;99.90;30.80;98382.00;;;;4991130;28;88380;-63
2022/07/28 05:25:23;;;;;;;16.08;12.35;;;29.90;99.90;29.70;98394.00;;;;4989921;28;87066;-63
2022/07/28 05:27:51;;;;;;;18.73;12.50;;;29.00;99.90;29.40;98401.00;;;;5007997;28;86675;-63
2022/07/28 05:30:19;;;;;;;19.15;11.88;;;28.70;99.90;29.30;98390.00;;;;5005546;28;87945;-62
2022/07/28 05:32:45;;;;;;;15.30;11.48;;;28.70;99.90;29.70;98387.00;;;;4991532;28;87777;-63
2022/07/28 05:35:12;;;;;;;18.20;11.52;;;29.00;99.90;30.30;98386.00;;;;5009262;28;88433;-63
2022/07/28 05:37:38;;;;;;;17.38;11.20;;;29.50;99.90;30.70;98382.00;;;;4992237;28;87347;-63
2022/07/28 05:40:12;;;;;;;15.35;10.90;;;29.80;99.90;30.80;98390.00;;;;5006567;28;88461;-63
2022/07/28 05:42:40;;;;;;;15.43;11.35;;;30.00;99.90;30.80;98389.00;;;;5007380;28;87585;-63
2022/07/28 05:45:09;;;;;;;14.63;10.82;;;30.00;99.90;31.10;98392.00;;;;4989291;28;87113;-63
2022/07/28 05:47:53;;;;;;;14.73;10.88;;;30.30;99.90;31.00;98387.00;;;;5010900;28;87192;-63
2022/07/28 05:50:21;;;;;;;13.82;9.93;;;30.20;99.90;30.90;98394.00;;;;5005189;28;88571;-63
2022/07/28 05:52:49;;;;;;;17.27;11.02;;;30.00;99.90;30.80;98394.00;;;;5008890;28;87107;-63
2022/07/28 05:55:16;;;;;;;23.35;14.88;;;29.90;99.90;31.00;98399.00;;;;5012105;28;87639;-64
2022/07/28 05:57:42;;;;;;;13.50;10.77;;;30.00;99.90;30.70;98403.00;;;;5009697;28;87301;-63
2022/07/28 06:00:14;;;;;;;15.90;11.02;;;29.80;99.90;30.20;98403.00;;;;5009363;28;89035;-64
2022/07/28 06:02:44;;;;;;;14.35;10.48;;;29.40;99.90;29.60;98401.00;;;;5003809;28;89460;-63
2022/07/28 06:05:11;;;;;;;15.18;10.85;;;28.90;99.90;29.20;98391.00;;;;5013707;28;87002;-64
2022/07/28 06:07:37;;;;;;;20.20;11.73;;;28.50;99.90;29.10;98394.00;;;;4991601;28;87662;-63
2022/07/28 06:10:04;;;;;;;17.02;10.73;;;28.60;99.90;29.50;98390.00;;;;5014108;28;88589;-64
2022/07/28 06:12:30;;;;;;;14.25;10.35;;;28.80;99.90;30.30;98392.00;;;;5012390;28;87355;-63
2022/07/28 06:14:56;;;;;;;19.77;10.95;;;29.30;99.90;30.50;98400.00;;;;4992825;28;87242;-64
2022/07/28 06:17:23;;;;;;;15.00;11.25;;;29.50;99.90;30.30;98393.00;;;;5008074;28;86623;-63
2022/07/28 06:19:49;;;;;;;17.63;10.68;;;29.40;99.90;30.10;98385.00;;;;5005210;28;87529;-64
2022/07/28 06:22:15;;;;;;;18.27;10.80;;;29.30;99.90;30.20;98388.00;;;;4995014;28;88573;-64
2022/07/28 06:24:41;;;;;;;16.90;11.52;;;29.30;99.90;30.20;98387.00;;;;4998523;28;88319;-64
2022/07/28 06:27:07;;;;;;;13.48;10.32;;;29.40;99.90;30.20;98389.00;;;;4985294;28;87086;-64
2022/07/28 06:29:33;;;;;;;13.50;10.77;;;29.40;99.90;29.80;98399.00;;;;5009375;28;87741;-64
2022/07/28 06:31:59;;;;;;;13.07;10.00;;;29.10;99.90;29.60;98384.00;;;;4991644;28;87194;-64
2022/07/28 06:34:26;;;;;;;17.33;10.88;;;29.00;99.90;29.50;98381.00;;;;5013376;28;87031;-64
2022/07/28 06:36:52;;;;;;;15.05;9.90;;;29.10;99.90;29.20;98387.00;;;;4996280;28;86997;-63
2022/07/28 06:39:18;;;;;;;15.05;9.73;;;28.70;99.90;29.00;98385.00;;;;5002724;28;87797;-63
2022/07/28 06:41:44;;;;;;;17.25;10.15;;;28.60;99.90;28.90;98392.00;;;;5015376;28;86630;-64
2022/07/28 06:44:12;;;;;;;15.40;10.23;;;28.50;99.90;28.90;98385.00;;;;5006907;28;87576;-64
2022/07/28 06:46:38;;;;;;;13.65;9.07;;;28.40;99.90;28.70;98385.00;;;;5009919;28;87520;-64
2022/07/28 06:49:04;;;;;;;13.40;9.35;;;28.20;99.90;28.60;98382.00;;;;5015632;28;88727;-64
2022/07/28 06:51:31;;;;;;;14.40;10.27;;;28.20;99.90;28.70;98388.00;;;;4986458;28;89428;-65
2022/07/28 06:53:58;;;;;;;13.20;9.60;;;28.20;99.90;28.50;98388.00;;;;4979315;28;87631;-64
2022/07/28 06:56:24;;;;;;;16.77;9.57;;;28.10;99.90;28.30;98383.00;;;;5008193;28;87586;-64
2022/07/28 06:58:50;;;;;;;11.60;10.30;;;27.90;99.90;28.30;98384.00;;;;5009315;28;89029;-64
2022/07/28 07:01:16;;;;;;;11.90;9.38;;;28.00;99.90;28.40;98385.00;;;;5010136;28;87342;-64
2022/07/28 07:03:43;;;;;;;14.50;8.90;;;28.00;99.90;28.50;98376.00;;;;5004226;28;87060;-64
2022/07/28 07:06:09;;;;;;;13.18;10.18;;;28.10;99.90;28.30;98388.00;;;;5008294;28;87275;-64
2022/07/28 07:08:35;;;;;;;15.48;9.30;;;28.00;99.90;28.40;98389.00;;;;5004404;28;87562;-65
2022/07/28 07:11:02;;;;;;;20.63;9.73;;;28.00;99.90;28.40;98379.00;;;;4987593;28;87420;-64
2022/07/28 07:13:28;;;;;;;17.80;9.57;;;28.10;99.90;28.50;98387.00;;;;5006828;28;88200;-64
2022/07/28 07:15:54;;;;;;;17.70;10.05;;;28.10;99.90;28.50;98391.00;;;;4987436;28;87004;-64
2022/07/28 07:18:21;;;;;;;19.38;10.20;;;28.20;99.90;28.60;98387.00;;;;4978157;28;90280;-68
2022/07/28 07:20:47;;;;;;;16.42;9.82;;;28.20;99.90;28.50;98384.00;;;;5004441;28;88499;-66
2022/07/28 07:23:14;;;;;;;21.95;9.98;;;28.20;99.90;28.50;98394.00;;;;5004232;28;87628;-67
2022/07/28 07:25:40;;;;;;;11.13;9.82;;;28.10;99.90;28.50;98390.00;;;;5016563;28;86990;-69
2022/07/28 07:28:06;;;;;;;13.00;9.32;;;28.10;99.90;28.50;98384.00;;;;5002641;28;88887;-67
2022/07/28 07:30:32;;;;;;;12.05;9.05;;;28.20;99.90;28.70;98376.00;;;;5012026;28;86239;-67
2022/07/28 07:32:58;;;;;;;14.73;8.55;;;28.30;99.90;28.80;98385.00;;;;4980588;28;87192;-68
2022/07/28 07:35:25;;;;;;;10.70;9.35;;;28.60;99.90;28.90;98383.00;;;;5019683;28;87186;-68
2022/07/28 07:37:51;;;;;;;12.07;8.55;;;28.60;99.90;28.90;98381.00;;;;5013025;28;90026;-68
2022/07/28 07:40:18;;;;;;;11.65;8.88;;;28.50;99.90;28.90;98374.00;;;;5007637;28;88175;-68
2022/07/28 07:42:44;;;;;;;12.45;9.45;;;28.50;99.90;28.80;98375.00;;;;5010762;28;87924;-68
2022/07/28 07:45:10;;;;;;;16.17;9.82;;;28.50;99.90;28.90;98383.00;;;;5013152;28;87227;-67
2022/07/28 07:47:37;;;;;;;10.48;8.70;;;28.50;99.90;29.00;98378.00;;;;5012924;28;88563;-66
2022/07/28 07:50:03;;;;;;;14.32;9.85;;;28.60;99.90;29.00;98385.00;;;;5009014;28;87283;-65
2022/07/28 07:52:30;;;;;;;11.77;8.40;;;28.70;99.90;29.10;98397.00;;;;4997847;28;87734;-66
2022/07/28 07:54:56;;;;;;;10.57;8.57;;;28.70;99.90;29.10;98391.00;;;;5003520;28;86279;-66
2022/07/28 07:57:22;;;;;;;14.30;9.10;;;28.70;99.90;29.20;98388.00;;;;5010432;28;87624;-65
2022/07/28 07:59:48;;;;;;;10.50;8.27;;;28.80;99.90;29.20;98398.00;;;;5007024;28;88562;-66
2022/07/28 08:02:14;;;;;;;14.68;8.57;;;28.80;99.90;29.20;98399.00;;;;4994815;28;88379;-66
2022/07/28 08:04:40;;;;;;;9.43;8.43;;;28.80;99.90;29.30;98402.00;;;;5011231;28;87068;-66
2022/07/28 08:07:07;;;;;;;14.95;9.07;;;28.80;99.90;29.40;98387.00;;;;5011848;28;87917;-65
2022/07/28 08:09:33;;;;;;;11.48;8.98;;;28.90;99.90;29.40;98387.00;;;;5000886;28;87699;-67
2022/07/28 08:12:00;;;;;;;14.85;8.45;;;28.90;99.90;29.50;98386.00;;;;5005026;28;87264;-66
2022/07/28 08:14:26;;;;;;;12.25;8.43;;;28.80;99.90;29.40;98398.00;;;;5015736;28;87609;-66
2022/07/28 08:16:55;;;;;;;11.75;8.68;;;28.80;99.90;29.50;98386.00;;;;5008668;28;87675;-66
2022/07/28 08:19:21;;;;;;;12.88;8.88;;;28.80;99.90;29.60;98387.00;;;;4995538;28;88555;-66
2022/07/28 08:21:47;;;;;;;11.65;8.85;;;29.20;99.90;29.70;98384.00;;;;5010408;28;86938;-66
2022/07/28 08:24:14;;;;;;;13.57;11.02;;;29.20;99.90;30.00;98365.00;;;;5011066;28;87928;-66
2022/07/28 08:26:40;;;;;;;10.25;8.93;;;29.50;99.90;30.00;98363.00;;;;5008891;28;89408;-66
2022/07/28 08:29:08;;;;;;;10.23;8.75;;;29.50;99.90;30.00;98369.00;;;;5012000;28;88367;-65
2022/07/28 08:31:34;;;;;;;10.40;8.52;;;29.50;99.90;30.00;98362.00;;;;4992986;28;87486;-66
2022/07/28 08:34:02;;;;;;;14.52;8.48;;;29.40;99.90;29.70;98358.00;;;;4991294;28;87053;-66
2022/07/28 08:36:30;;;;;;;11.85;8.73;;;29.10;99.90;29.30;98357.00;;;;5001771;28;87504;-66
2022/07/28 08:38:57;;;;;;;11.15;8.73;;;28.80;99.90;29.20;98362.00;;;;5014518;28;87341;-66
2022/07/28 08:41:37;;;;;;;9.63;8.50;;;28.60;99.90;29.20;98364.00;;;;4983563;28;87444;-66
2022/07/28 08:44:07;;;;;;;12.27;8.55;;;28.70;99.90;29.30;98356.00;;;;5004422;28;86860;-66
2022/07/28 08:46:37;;;;;;;15.60;8.35;;;28.70;99.90;29.20;98341.00;;;;4991440;28;87550;-66
2022/07/28 08:49:08;;;;;;;11.20;8.52;;;28.70;99.90;29.30;98329.00;;;;5004129;28;88496;-66
2022/07/28 08:51:36;;;;;;;11.60;8.60;;;28.90;99.90;29.60;98329.00;;;;4991855;28;88020;-66
2022/07/28 08:54:04;;;;;;;17.50;9.25;;;29.10;99.90;29.80;98326.00;;;;5013246;28;87215;-66
2022/07/28 08:56:31;;;;;;;13.73;9.10;;;29.30;99.90;29.80;98335.00;;;;4979799;28;87918;-66
2022/07/28 08:58:58;;;;;;;12.73;8.93;;;29.30;99.90;29.70;98351.00;;;;5006893;28;88916;-67
2022/07/28 09:01:24;;;;;;;11.02;8.48;;;29.20;99.90;29.70;98346.00;;;;5017586;28;87085;-66
2022/07/28 09:03:51;;;;;;;7.78;6.88;;;29.30;99.90;29.70;98349.00;;;;5011909;28;87967;-66
2022/07/28 09:06:20;;;;;;;9.43;7.00;;;29.10;99.90;29.50;98332.00;;;;4990389;28;87146;-66
2022/07/28 09:08:46;;;;;;;12.10;7.47;;;29.00;99.90;29.30;98343.00;;;;4993767;28;87963;-66
2022/07/28 09:11:12;;;;;;;11.93;6.53;;;28.90;99.90;29.20;98343.00;;;;4998105;28;87643;-67
2022/07/28 09:13:39;;;;;;;11.23;6.55;;;28.70;99.90;29.10;98347.00;;;;5010705;28;87310;-67
2022/07/28 09:16:05;;;;;;;15.30;6.63;;;28.60;99.90;29.10;98360.00;;;;5006027;28;88837;-68
2022/07/28 09:18:31;;;;;;;10.60;7.30;;;28.70;99.90;29.30;98340.00;;;;5014747;28;88157;-67
2022/07/28 09:20:58;;;;;;;9.80;7.00;;;28.80;99.90;29.40;98345.00;;;;5007343;28;87339;-67
2022/07/28 09:23:24;;;;;;;13.68;8.00;;;28.80;99.90;29.40;98339.00;;;;5006151;28;87475;-67
2022/07/28 09:25:50;;;;;;;10.05;7.10;;;28.90;99.90;29.50;98334.00;;;;5000362;28;88794;-67
2022/07/28 09:28:17;;;;;;;10.32;7.90;;;29.00;99.90;29.60;98330.00;;;;4983609;28;87306;-67
2022/07/28 09:30:46;;;;;;;17.35;7.90;;;29.10;99.90;29.50;98333.00;;;;5015215;28;87260;-67
2022/07/28 09:33:21;;;;;;;10.63;7.75;;;29.20;99.90;29.60;98338.00;;;;4982701;28;86921;-67
2022/07/28 09:35:49;;;;;;;8.65;7.75;;;29.10;99.90;29.70;98321.00;;;;4987664;28;87551;-67
2022/07/28 09:38:49;;;;;;;10.32;7.43;;;29.30;99.90;29.90;98320.00;;;;5000350;28;87421;-66
2022/07/28 09:41:59;;;;;;;7.85;7.05;;;29.50;99.90;30.20;98314.00;;;;5004569;28;88189;-66
2022/07/28 09:45:23;;;;;;;12.05;7.72;;;29.70;99.90;30.10;98306.00;;;;5015621;28;87323;-66
2022/07/28 09:49:07;;;;;;;10.05;8.02;;;29.70;99.90;29.90;98318.00;;;;4999713;28;87635;-68
2022/07/28 09:52:45;;;;;;;15.38;7.97;;;29.30;99.90;29.60;98323.00;;;;5008992;28;88950;-67
2022/07/28 09:56:51;;;;;;;11.18;8.10;;;29.00;99.90;29.50;98327.00;;;;5006302;28;86995;-67
2022/07/28 10:00:08;;;;;;;13.73;8.95;;;29.00;99.90;29.40;98324.00;;;;4985488;28;87604;-67
2022/07/28 10:03:10;;;;;;;11.43;8.15;;;28.90;99.90;29.40;98338.00;;;;4992460;28;87894;-67
2022/07/28 10:06:18;;;;;;;10.60;7.22;;;28.90;99.90;29.30;98328.00;;;;4988292;28;89858;-71
2022/07/28 10:12:47;;;;;;;6.97;5.00;;;28.70;99.90;29.10;98317.00;;;;5004570;28;86974;-67
2022/07/28 10:19:27;;;;;;;7.15;4.60;;;28.30;99.90;28.70;98328.00;;;;4952143;28;89964;-67
2022/07/28 10:22:36;;;;;;;7.95;4.60;;;28.20;99.90;28.60;98339.00;;;;4945235;28;87436;-67
2022/07/28 10:25:24;;;;;;;9.05;5.15;;;28.10;99.90;28.50;98336.00;;;;4997933;28;87729;-67
2022/07/28 10:28:40;;;;;;;8.85;5.57;;;28.00;99.90;28.40;98345.00;;;;4981200;28;88300;-67
2022/07/28 10:31:56;;;;;;;11.43;5.25;;;27.90;99.90;28.40;98361.00;;;;4974822;28;90973;-67
2022/07/28 10:35:27;;;;;;;8.30;5.30;;;27.90;99.90;28.30;98373.00;;;;4981378;28;86965;-66
2022/07/28 10:38:38;;;;;;;5.53;4.65;;;27.70;99.90;28.20;98377.00;;;;4968757;28;86452;-67
2022/07/28 10:45:15;;;;;;;7.35;4.90;;;27.70;99.90;28.40;98362.00;;;;4971126;28;89215;-66
2022/07/28 10:47:57;;;;;;;8.75;5.13;;;27.90;99.90;28.80;98357.00;;;;4979095;28;88067;-67
2022/07/28 10:50:40;;;;;;;8.52;5.28;;;28.20;99.90;29.00;98362.00;;;;4978690;28;87415;-67
2022/07/28 10:53:34;;;;;;;;;;;28.40;99.90;29.40;98374.00;;;;4972436;28;88667;-67
2022/07/28 10:57:10;;;;;;;8.25;5.22;;;28.70;99.90;29.40;98377.00;;;;4987160;28;88257;-67
2022/07/28 11:00:17;;;;;;;10.35;5.85;;;28.80;99.90;29.10;98393.00;;;;4986193;28;87476;-67
2022/07/28 11:07:21;;;;;;;9.17;6.03;;;28.20;99.90;28.40;98381.00;;;;4927424;28;87573;-66
2022/07/28 11:11:04;;;;;;;8.68;6.00;;;27.90;99.90;28.40;98403.00;;;;4992825;28;88871;-67
2022/07/28 11:14:04;;;;;;;10.32;6.40;;;27.80;99.90;28.20;98407.00;;;;4937957;28;87131;-67
2022/07/28 11:16:39;;;;;;;6.53;4.55;;;27.60;99.90;28.00;98425.00;;;;4982335;28;87252;-61
2022/07/28 11:19:10;;;;;;;11.55;4.93;;;27.40;99.90;27.70;98440.00;;;;4982414;28;88478;-61
2022/07/28 11:21:36;;;;;;;15.02;6.35;;;27.00;99.90;27.20;98431.00;;;;4994186;28;87302;-61